createdAt,value
2017-04-18T00:00:05.157Z,68.83
2017-04-18T00:00:45.608Z,68.1
2017-04-18T00:01:26.091Z,68.67
2017-04-18T00:02:06.592Z,67.34
2017-04-18T00:02:47.078Z,66.96
2017-04-18T00:03:27.544Z,66.3
2017-04-18T00:04:08.040Z,66.3
2017-04-18T00:04:48.511Z,66.39
2017-04-18T00:05:29.008Z,66.55
2017-04-18T00:06:09.502Z,66.11
2017-04-18T00:06:49.971Z,65.88
2017-04-18T00:07:30.447Z,66.08
2017-04-18T00:08:10.940Z,66.01
2017-04-18T00:08:51.441Z,65.73
2017-04-18T00:09:31.929Z,65.79
2017-04-18T00:10:12.415Z,65.6
2017-04-18T00:10:52.913Z,65.98
2017-04-18T00:11:33.406Z,65.92
2017-04-18T00:12:13.892Z,64.75
2017-04-18T00:12:54.390Z,64.37
2017-04-18T00:13:34.886Z,64.46
2017-04-18T00:14:15.374Z,63.7
2017-04-18T00:14:55.863Z,63.98
2017-04-18T00:15:36.344Z,64.08
2017-04-18T00:16:16.842Z,63.7
2017-04-18T00:16:57.323Z,63.6
2017-04-18T00:17:37.806Z,64.46
2017-04-18T00:18:18.287Z,63.26
2017-04-18T00:18:58.774Z,62.94
2017-04-18T00:19:39.312Z,63.13
2017-04-18T00:20:19.739Z,62.08
2017-04-18T00:21:00.240Z,61.04
2017-04-18T00:21:40.716Z,61.52
2017-04-18T00:22:21.185Z,61.99
2017-04-18T00:23:01.664Z,61.42
2017-04-18T00:23:42.162Z,61.74
2017-04-18T00:24:23.385Z,62.85
2017-04-18T00:25:03.874Z,62.56
2017-04-18T00:25:44.354Z,62.46
2017-04-18T00:26:24.842Z,62.75
2017-04-18T00:27:05.324Z,62.66
2017-04-18T00:27:45.803Z,62.18
2017-04-18T00:28:26.257Z,62.08
2017-04-18T00:29:06.751Z,62.08
2017-04-18T00:29:47.244Z,62.18
2017-04-18T00:30:27.728Z,62.08
2017-04-18T00:31:08.220Z,61.61
2017-04-18T00:31:48.703Z,62.18
2017-04-18T00:32:29.188Z,62.18
2017-04-18T00:33:09.654Z,62.18
2017-04-18T00:33:50.124Z,62.27
2017-04-18T00:34:30.601Z,61.71
2017-04-18T00:35:11.082Z,62.56
2017-04-18T00:35:51.559Z,62.27
2017-04-18T00:36:32.052Z,63.23
2017-04-18T00:37:12.543Z,62.94
2017-04-18T00:37:52.989Z,62.75
2017-04-18T00:38:33.474Z,63.6
2017-04-18T00:39:13.955Z,63.6
2017-04-18T00:39:54.440Z,62.94
2017-04-18T00:40:34.912Z,62.66
2017-04-18T00:41:15.410Z,62.85
2017-04-18T00:41:55.894Z,62.75
2017-04-18T00:42:36.395Z,63.04
2017-04-18T00:43:16.851Z,62.66
2017-04-18T00:43:57.327Z,62.37
2017-04-18T00:44:37.802Z,61.8
2017-04-18T00:46:25.279Z,64.27
2017-04-18T00:47:05.794Z,63.23
2017-04-18T00:47:46.246Z,63.98
2017-04-18T00:48:26.732Z,63.98
2017-04-18T00:49:07.202Z,64.65
2017-04-18T00:49:47.683Z,64.65
2017-04-18T00:50:28.172Z,65.69
2017-04-18T00:51:08.660Z,65.22
2017-04-18T00:51:49.130Z,64.9
2017-04-18T00:52:29.628Z,65.6
2017-04-18T00:53:10.112Z,64.81
2017-04-18T00:53:50.600Z,64.17
2017-04-18T00:54:31.090Z,64.17
2017-04-18T00:55:11.565Z,65.56
2017-04-18T00:55:52.047Z,65
2017-04-18T00:56:32.537Z,64.81
2017-04-18T00:57:13.025Z,65
2017-04-18T00:57:53.505Z,65.28
2017-04-18T00:58:33.980Z,65.56
2017-04-18T00:59:14.473Z,64.52
2017-04-18T00:59:54.961Z,64.43
2017-04-18T01:00:35.448Z,64.33
2017-04-18T01:01:15.935Z,64.33
2017-04-18T01:01:56.411Z,65
2017-04-18T01:02:36.909Z,64.9
2017-04-18T01:03:17.375Z,65.09
2017-04-18T01:03:57.888Z,65.37
2017-04-18T01:04:38.346Z,64.71
2017-04-18T01:05:18.871Z,64.62
2017-04-18T01:05:59.319Z,63.1
2017-04-18T01:06:39.823Z,63.01
2017-04-18T01:07:20.313Z,63.2
2017-04-18T01:08:00.795Z,63.29
2017-04-18T01:08:41.276Z,63.95
2017-04-18T01:09:21.752Z,63.2
2017-04-18T01:10:02.251Z,63.01
2017-04-18T01:10:42.735Z,63.86
2017-04-18T01:11:23.227Z,63.48
2017-04-18T01:12:03.726Z,63.39
2017-04-18T01:12:44.217Z,63.39
2017-04-18T01:13:24.659Z,63.57
2017-04-18T01:14:05.089Z,64.33
2017-04-18T01:14:45.582Z,64.14
2017-04-18T01:15:26.005Z,64.14
2017-04-18T01:16:06.457Z,64.14
2017-04-18T01:16:46.920Z,64.24
2017-04-18T01:17:27.356Z,64.43
2017-04-18T01:18:07.808Z,64.81
2017-04-18T01:18:48.279Z,64.62
2017-04-18T01:20:40.806Z,64.14
2017-04-18T01:21:21.312Z,64.05
2017-04-18T01:22:01.770Z,64.14
2017-04-18T01:22:42.256Z,64.14
2017-04-18T01:23:22.737Z,64.62
2017-04-18T01:24:03.207Z,64.59
2017-04-18T01:24:43.689Z,64.62
2017-04-18T01:25:24.189Z,64.59
2017-04-18T01:26:04.667Z,64.68
2017-04-18T01:26:45.163Z,65.16
2017-04-18T01:27:25.659Z,64.87
2017-04-18T01:28:06.148Z,64.97
2017-04-18T01:28:46.629Z,64.68
2017-04-18T01:29:27.119Z,64.68
2017-04-18T01:30:07.585Z,64.49
2017-04-18T01:30:48.106Z,64.78
2017-04-18T01:31:28.595Z,64.78
2017-04-18T01:32:09.077Z,63.92
2017-04-18T01:32:49.565Z,63.92
2017-04-18T01:33:30.042Z,63.92
2017-04-18T01:34:10.527Z,63.92
2017-04-18T01:34:51.003Z,63.76
2017-04-18T01:35:31.495Z,64.01
2017-04-18T01:36:11.974Z,63.95
2017-04-18T01:36:52.447Z,64.2
2017-04-18T01:37:32.954Z,64.11
2017-04-18T01:38:13.475Z,63.82
2017-04-18T01:38:53.895Z,64.3
2017-04-18T01:39:34.423Z,64.49
2017-04-18T01:40:14.847Z,64.49
2017-04-18T01:40:55.346Z,64.3
2017-04-18T01:41:35.853Z,64.11
2017-04-18T01:42:16.316Z,63.92
2017-04-18T01:42:56.860Z,63.92
2017-04-18T01:43:37.367Z,64.01
2017-04-18T01:44:17.812Z,64.11
2017-04-18T01:44:58.314Z,63.92
2017-04-18T01:45:38.875Z,64.59
2017-04-18T01:46:19.355Z,64.2
2017-04-18T01:46:59.836Z,64.49
2017-04-18T01:47:40.307Z,64.11
2017-04-18T01:48:20.834Z,64.68
2017-04-18T01:49:01.272Z,64.59
2017-04-18T01:49:41.751Z,65.06
2017-04-18T01:50:22.232Z,64.68
2017-04-18T01:51:02.721Z,64.97
2017-04-18T01:51:43.195Z,64.78
2017-04-18T01:52:23.686Z,64.78
2017-04-18T01:53:04.164Z,65.63
2017-04-18T01:53:44.643Z,65.44
2017-04-18T01:54:25.118Z,65.53
2017-04-18T01:55:05.603Z,65.63
2017-04-18T01:55:46.087Z,65.72
2017-04-18T01:56:26.576Z,65.63
2017-04-18T01:57:07.064Z,65.63
2017-04-18T01:57:47.535Z,65.63
2017-04-18T01:58:28.029Z,65.44
2017-04-18T01:59:09.301Z,65.72
2017-04-18T01:59:49.790Z,65.53
2017-04-18T02:00:30.272Z,65.72
2017-04-18T02:01:10.759Z,65.44
2017-04-18T02:01:51.264Z,65.53
2017-04-18T02:02:31.739Z,65.16
2017-04-18T02:03:12.222Z,65.34
2017-04-18T02:03:52.699Z,65.63
2017-04-18T02:04:33.196Z,65.44
2017-04-18T02:05:13.656Z,65.72
2017-04-18T02:05:54.118Z,65.16
2017-04-18T02:06:34.590Z,65.63
2017-04-18T02:07:15.032Z,65.82
2017-04-18T02:07:55.498Z,65.72
2017-04-18T02:08:35.968Z,65.53
2017-04-18T02:09:16.417Z,65.53
2017-04-18T02:11:14.024Z,65.72
2017-04-18T02:11:54.502Z,66.01
2017-04-18T02:12:35.006Z,66.48
2017-04-18T02:13:15.456Z,66.48
2017-04-18T02:13:55.926Z,65.91
2017-04-18T02:14:36.377Z,66.48
2017-04-18T02:15:16.832Z,66.2
2017-04-18T02:15:57.305Z,66.29
2017-04-18T02:16:37.767Z,66.77
2017-04-18T02:18:30.328Z,66.1
2017-04-18T02:19:10.796Z,66.48
2017-04-18T02:19:51.266Z,66.48
2017-04-18T02:20:31.758Z,66.29
2017-04-18T02:21:12.240Z,66.96
2017-04-18T02:21:52.710Z,66.48
2017-04-18T02:22:33.203Z,67.05
2017-04-18T02:23:13.690Z,67.05
2017-04-18T02:23:54.168Z,67.52
2017-04-18T02:24:34.646Z,67.14
2017-04-18T02:25:15.118Z,66.96
2017-04-18T02:25:55.604Z,67.14
2017-04-18T02:26:36.082Z,66.45
2017-04-18T02:27:16.571Z,66.1
2017-04-18T02:27:57.074Z,66.2
2017-04-18T02:28:37.534Z,67.14
2017-04-18T02:29:18.028Z,67.49
2017-04-18T02:29:58.518Z,67.77
2017-04-18T02:30:39.028Z,68.25
2017-04-18T02:31:19.489Z,68.82
2017-04-18T02:31:59.998Z,68.25
2017-04-18T02:32:40.465Z,67.77
2017-04-18T02:33:20.948Z,68.06
2017-04-18T02:34:01.452Z,67.96
2017-04-18T02:34:41.925Z,67.68
2017-04-18T02:35:22.394Z,67.77
2017-04-18T02:36:02.867Z,67.68
2017-04-18T02:36:43.366Z,67.68
2017-04-18T02:37:23.840Z,67.11
2017-04-18T02:38:04.335Z,66.74
2017-04-18T02:38:44.864Z,67.21
2017-04-18T02:39:25.303Z,67.4
2017-04-18T02:40:05.772Z,66.93
2017-04-18T02:40:46.264Z,66.64
2017-04-18T02:41:26.708Z,67.3
2017-04-18T02:42:07.209Z,67.02
2017-04-18T02:42:47.682Z,67.02
2017-04-18T02:43:28.153Z,66.74
2017-04-18T02:44:08.641Z,67.11
2017-04-18T02:44:49.124Z,67.3
2017-04-18T02:45:29.604Z,67.3
2017-04-18T02:46:10.084Z,68.15
2017-04-18T02:46:50.539Z,67.68
2017-04-18T02:47:31.019Z,67.4
2017-04-18T02:48:11.491Z,67.4
2017-04-18T02:48:51.983Z,67.49
2017-04-18T02:49:32.463Z,67.58
2017-04-18T02:50:12.953Z,67.68
2017-04-18T02:50:53.431Z,68.15
2017-04-18T02:51:33.930Z,67.68
2017-04-18T02:52:14.413Z,67.49
2017-04-18T02:52:54.895Z,67.87
2017-04-18T02:53:35.352Z,67.4
2017-04-18T02:54:15.833Z,67.21
2017-04-18T02:54:56.321Z,67.49
2017-04-18T02:55:36.808Z,67.21
2017-04-18T02:56:17.294Z,67.3
2017-04-18T02:56:57.754Z,66.93
2017-04-18T02:57:38.243Z,67.11
2017-04-18T02:58:18.724Z,67.02
2017-04-18T02:58:59.205Z,67.21
2017-04-18T02:59:39.704Z,67.02
2017-04-18T03:00:20.161Z,67.77
2017-04-18T03:01:00.616Z,67.87
2017-04-18T03:01:41.068Z,68.25
2017-04-18T03:02:21.504Z,69.01
2017-04-18T03:04:39.309Z,67.11
2017-04-18T03:05:19.772Z,67.49
2017-04-18T03:06:00.212Z,68.06
2017-04-18T03:06:40.694Z,67.77
2017-04-18T03:08:58.505Z,67.49
2017-04-18T03:09:38.948Z,67.21
2017-04-18T03:10:19.415Z,67.21
2017-04-18T03:10:59.904Z,67.14
2017-04-18T03:11:40.362Z,67.21
2017-04-18T03:12:20.851Z,67.11
2017-04-18T03:13:01.325Z,67.02
2017-04-18T03:13:41.810Z,66.74
2017-04-18T03:14:22.306Z,66.74
2017-04-18T03:15:02.781Z,66.45
2017-04-18T03:15:43.260Z,66.54
2017-04-18T03:16:23.735Z,66.64
2017-04-18T03:17:04.198Z,66.39
2017-04-18T03:17:44.694Z,66.74
2017-04-18T03:18:25.168Z,66.74
2017-04-18T03:19:05.658Z,66.26
2017-04-18T03:19:46.121Z,67.14
2017-04-18T03:21:33.612Z,66.2
2017-04-18T03:22:14.054Z,66.01
2017-04-18T03:22:54.523Z,66.2
2017-04-18T03:23:35.019Z,66.39
2017-04-18T03:24:15.528Z,66.29
2017-04-18T03:24:56.017Z,66.58
2017-04-18T03:25:36.499Z,66.01
2017-04-18T03:26:16.934Z,65.82
2017-04-18T03:26:57.409Z,66.2
2017-04-18T03:27:37.887Z,65.82
2017-04-18T03:28:18.356Z,65.82
2017-04-18T03:28:58.851Z,66.29
2017-04-18T03:29:39.325Z,65.72
2017-04-18T03:30:19.808Z,65.91
2017-04-18T03:31:00.283Z,65.91
2017-04-18T03:32:52.836Z,66.1
2017-04-18T03:33:33.298Z,66.01
2017-04-18T03:34:13.791Z,66.01
2017-04-18T03:34:54.286Z,66.1
2017-04-18T03:35:34.771Z,65.82
2017-04-18T03:36:15.265Z,66.1
2017-04-18T03:36:55.772Z,65.91
2017-04-18T03:37:36.308Z,65.72
2017-04-18T03:38:16.732Z,66.2
2017-04-18T03:38:57.208Z,66.39
2017-04-18T03:39:37.684Z,66.29
2017-04-18T03:40:18.164Z,66.39
2017-04-18T03:40:58.672Z,66.29
2017-04-18T03:41:39.145Z,66.2
2017-04-18T03:42:19.638Z,66.1
2017-04-18T03:43:00.122Z,66.01
2017-04-18T03:43:40.615Z,65.91
2017-04-18T03:44:21.094Z,66.29
2017-04-18T03:45:01.567Z,66.39
2017-04-18T03:45:42.053Z,66.2
2017-04-18T03:46:22.540Z,66.48
2017-04-18T03:47:03.029Z,65.91
2017-04-18T03:47:43.514Z,66.29
2017-04-18T03:48:23.996Z,66.29
2017-04-18T03:49:04.476Z,66.39
2017-04-18T03:49:44.946Z,66.48
2017-04-18T03:50:25.412Z,66.67
2017-04-18T03:52:17.927Z,66.2
2017-04-18T03:52:58.401Z,66.29
2017-04-18T03:53:39.622Z,65.72
2017-04-18T03:54:20.095Z,65.82
2017-04-18T03:55:00.565Z,65.91
2017-04-18T03:55:41.032Z,66.2
2017-04-18T03:56:21.495Z,66.2
2017-04-18T03:58:39.326Z,65.82
2017-04-18T03:59:19.738Z,65.82
2017-04-18T04:00:00.251Z,65.63
2017-04-18T04:00:40.736Z,65.63
2017-04-18T04:01:21.272Z,66.48
2017-04-18T04:02:01.703Z,66.1
2017-04-18T04:02:42.188Z,66.48
2017-04-18T04:03:22.679Z,65.91
2017-04-18T04:04:03.169Z,66.2
2017-04-18T04:04:43.655Z,66.48
2017-04-18T04:05:24.140Z,65.88
2017-04-18T04:06:04.661Z,66.07
2017-04-18T04:06:45.149Z,66.01
2017-04-18T04:07:25.648Z,65.88
2017-04-18T04:08:06.111Z,65.78
2017-04-18T04:08:46.588Z,66.01
2017-04-18T04:09:27.066Z,66.07
2017-04-18T04:10:07.549Z,66.64
2017-04-18T04:10:48.053Z,65.91
2017-04-18T04:11:28.513Z,65.82
2017-04-18T04:12:09.011Z,65.91
2017-04-18T04:12:49.493Z,66.07
2017-04-18T04:13:29.952Z,66.29
2017-04-18T04:14:10.431Z,66.26
2017-04-18T04:14:50.900Z,66.45
2017-04-18T04:15:31.362Z,66.48
2017-04-18T04:16:11.843Z,66.39
2017-04-18T04:16:52.339Z,66.39
2017-04-18T04:17:32.825Z,65.63
2017-04-18T04:18:13.308Z,65.59
2017-04-18T04:18:53.786Z,66.01
2017-04-18T04:19:34.299Z,65.82
2017-04-18T04:20:14.751Z,66.1
2017-04-18T04:20:55.232Z,66.2
2017-04-18T04:21:35.722Z,65.82
2017-04-18T04:22:16.203Z,66.01
2017-04-18T04:22:56.687Z,66.48
2017-04-18T04:23:37.176Z,66.01
2017-04-18T04:24:17.654Z,66.2
2017-04-18T04:24:58.135Z,65.82
2017-04-18T04:25:38.643Z,65.72
2017-04-18T04:26:19.125Z,65.82
2017-04-18T04:26:59.609Z,65.72
2017-04-18T04:27:40.100Z,65.91
2017-04-18T04:28:20.564Z,65.82
2017-04-18T04:29:01.049Z,66.39
2017-04-18T04:29:41.513Z,65.91
2017-04-18T04:30:22.004Z,66.29
2017-04-18T04:31:02.496Z,66.1
2017-04-18T04:31:42.974Z,65.82
2017-04-18T04:32:23.448Z,66.01
2017-04-18T04:33:03.942Z,65.53
2017-04-18T04:33:44.430Z,65.25
2017-04-18T04:34:24.927Z,65.63
2017-04-18T04:35:05.436Z,66.01
2017-04-18T04:35:45.872Z,65.53
2017-04-18T04:36:26.360Z,65.44
2017-04-18T04:37:06.828Z,65.91
2017-04-18T04:37:47.319Z,66.01
2017-04-18T04:38:27.810Z,66.01
2017-04-18T04:39:08.298Z,66.2
2017-04-18T04:39:48.784Z,65.53
2017-04-18T04:40:29.269Z,65.34
2017-04-18T04:41:09.753Z,65.53
2017-04-18T04:41:50.227Z,65.63
2017-04-18T04:42:30.736Z,66.01
2017-04-18T04:43:11.195Z,65.91
2017-04-18T04:43:51.662Z,66.2
2017-04-18T04:44:32.138Z,65.91
2017-04-18T04:45:12.617Z,65.44
2017-04-18T04:45:53.132Z,65.63
2017-04-18T04:46:33.617Z,65.82
2017-04-18T04:47:14.101Z,65.44
2017-04-18T04:47:54.579Z,65.72
2017-04-18T04:48:35.056Z,66.01
2017-04-18T04:49:15.549Z,66.01
2017-04-18T04:49:56.025Z,66.01
2017-04-18T04:50:36.502Z,66.39
2017-04-18T04:51:16.996Z,66.01
2017-04-18T04:51:57.478Z,65.91
2017-04-18T04:52:37.962Z,65.63
2017-04-18T04:53:18.448Z,65.72
2017-04-18T04:53:58.935Z,65.63
2017-04-18T04:54:39.417Z,65.72
2017-04-18T04:55:19.906Z,65.44
2017-04-18T04:56:00.384Z,65.53
2017-04-18T04:56:40.865Z,65.16
2017-04-18T04:57:21.323Z,64.87
2017-04-18T04:58:01.786Z,65.34
2017-04-18T04:58:42.227Z,64.87
2017-04-18T04:59:22.692Z,65.44
2017-04-18T05:00:03.109Z,65.06
2017-04-18T05:00:43.563Z,65.25
2017-04-18T05:01:23.996Z,65.34
2017-04-18T05:02:04.447Z,65.06
2017-04-18T05:02:44.901Z,65.44
2017-04-18T05:05:02.638Z,65.25
2017-04-18T05:05:43.127Z,65.16
2017-04-18T05:06:23.633Z,65.25
2017-04-18T05:07:04.111Z,65.16
2017-04-18T05:07:44.597Z,65.44
2017-04-18T05:08:25.059Z,65.72
2017-04-18T05:09:05.544Z,65.63
2017-04-18T05:09:46.036Z,65.25
2017-04-18T05:10:26.493Z,65.25
2017-04-18T05:11:06.976Z,64.87
2017-04-18T05:11:47.460Z,65.25
2017-04-18T05:12:27.943Z,65.25
2017-04-18T05:13:08.416Z,64.97
2017-04-18T05:13:48.907Z,64.78
2017-04-18T05:14:29.391Z,65.06
2017-04-18T05:15:09.879Z,65.44
2017-04-18T05:15:50.361Z,65.16
2017-04-18T05:16:30.839Z,64.78
2017-04-18T05:17:11.301Z,64.97
2017-04-18T05:19:03.807Z,64.3
2017-04-18T05:19:44.277Z,64.3
2017-04-18T05:20:24.748Z,64.78
2017-04-18T05:21:05.206Z,64.4
2017-04-18T05:21:45.694Z,63.73
2017-04-18T05:22:26.242Z,63.64
2017-04-18T05:23:06.735Z,63.73
2017-04-18T05:23:47.204Z,63.73
2017-04-18T05:24:27.696Z,63.82
2017-04-18T05:25:08.191Z,63.82
2017-04-18T05:25:48.675Z,64.01
2017-04-18T05:26:29.169Z,64.11
2017-04-18T05:27:09.637Z,64.2
2017-04-18T05:27:50.117Z,63.92
2017-04-18T05:28:30.606Z,63.92
2017-04-18T05:29:11.106Z,64.01
2017-04-18T05:29:51.571Z,64.11
2017-04-18T05:31:49.166Z,63.82
2017-04-18T05:32:29.647Z,64.11
2017-04-18T05:33:10.153Z,64.11
2017-04-18T05:33:50.621Z,64.3
2017-04-18T05:34:31.068Z,64.78
2017-04-18T05:35:11.512Z,64.87
2017-04-18T05:35:51.956Z,64.78
2017-04-18T05:36:32.422Z,63.82
2017-04-18T05:37:12.876Z,63.82
2017-04-18T05:37:53.335Z,64.4
2017-04-18T05:38:33.794Z,64.01
2017-04-18T05:39:14.256Z,63.82
2017-04-18T05:39:54.718Z,63.92
2017-04-18T05:41:47.290Z,64.11
2017-04-18T05:42:27.728Z,64.4
2017-04-18T05:43:08.371Z,64.4
2017-04-18T05:43:48.928Z,64.4
2017-04-18T05:44:29.482Z,64.4
2017-04-18T05:45:10.043Z,64.59
2017-04-18T05:45:50.602Z,64.78
2017-04-18T05:46:31.074Z,64.49
2017-04-18T05:47:11.564Z,64.3
2017-04-18T05:47:52.019Z,63.92
2017-04-18T05:49:49.636Z,64.3
2017-04-18T05:50:30.127Z,64.2
2017-04-18T05:51:10.575Z,64.59
2017-04-18T05:51:51.048Z,64.4
2017-04-18T05:52:31.508Z,65.06
2017-04-18T05:53:11.982Z,64.87
2017-04-18T05:53:53.229Z,64.49
2017-04-18T05:54:33.663Z,64.78
2017-04-18T05:55:14.085Z,65.16
2017-04-18T05:55:54.586Z,65.53
2017-04-18T05:56:35.044Z,65.53
2017-04-18T05:57:15.493Z,65.72
2017-04-18T05:57:55.917Z,65.63
2017-04-18T05:58:36.359Z,65.82
2017-04-18T05:59:16.820Z,66.1
2017-04-18T05:59:57.298Z,66.01
2017-04-18T06:00:37.751Z,66.29
2017-04-18T06:01:18.229Z,66.01
2017-04-18T06:01:58.645Z,65.91
2017-04-18T06:03:46.198Z,66.01
2017-04-18T06:04:26.608Z,66.29
2017-04-18T06:05:07.058Z,65.82
2017-04-18T06:05:47.512Z,65.82
2017-04-18T06:06:27.975Z,66.1
2017-04-18T06:07:08.381Z,65.91
2017-04-18T06:09:00.990Z,66.01
2017-04-18T06:09:41.444Z,65.72
2017-04-18T06:10:21.927Z,66.39
2017-04-18T06:11:02.399Z,66.29
2017-04-18T06:11:42.825Z,66.2
2017-04-18T06:12:23.251Z,66.29
2017-04-18T06:13:03.745Z,66.39
2017-04-18T06:15:01.383Z,67.14
2017-04-18T06:15:41.858Z,67.33
2017-04-18T06:16:22.325Z,67.14
2017-04-18T06:17:02.795Z,66.96
2017-04-18T06:17:43.235Z,67.43
2017-04-18T06:18:23.689Z,67.43
2017-04-18T06:19:04.132Z,66.58
2017-04-18T06:19:44.598Z,66.58
2017-04-18T06:20:25.056Z,66.2
2017-04-18T06:22:17.623Z,65.91
2017-04-18T06:22:58.079Z,66.01
2017-04-18T06:23:38.566Z,65.91
2017-04-18T06:24:19.050Z,65.82
2017-04-18T06:24:59.510Z,65.53
2017-04-18T06:25:39.981Z,65.85
2017-04-18T06:27:53.422Z,65.75
2017-04-18T06:28:33.824Z,65.56
2017-04-18T06:29:14.297Z,65.09
2017-04-18T06:29:54.758Z,65.37
2017-04-18T06:30:35.234Z,64.52
2017-04-18T06:31:15.728Z,63.57
2017-04-18T06:31:56.270Z,63.29
2017-04-18T06:32:36.789Z,63.1
2017-04-18T06:33:17.300Z,63.76
2017-04-18T06:33:57.780Z,63.76
2017-04-18T06:34:38.254Z,64.14
2017-04-18T06:35:18.718Z,64.14
2017-04-18T06:35:59.152Z,63.39
2017-04-18T06:37:46.778Z,64.05
2017-04-18T06:38:27.194Z,63.86
2017-04-18T06:39:07.653Z,64.52
2017-04-18T06:39:48.093Z,64.43
2017-04-18T06:42:00.845Z,63.29
2017-04-18T06:42:41.413Z,63.39
2017-04-18T06:43:21.814Z,63.39
2017-04-18T06:44:02.315Z,63.48
2017-04-18T06:44:42.780Z,63.48
2017-04-18T06:45:23.337Z,63.48
2017-04-18T06:46:03.765Z,64.24
2017-04-18T06:46:44.236Z,63.76
2017-04-18T06:47:24.685Z,63.76
2017-04-18T06:49:12.325Z,63.39
2017-04-18T06:49:52.759Z,63.39
2017-04-18T06:51:40.193Z,63.48
2017-04-18T06:52:20.669Z,63.39
2017-04-18T06:53:01.140Z,62.82
2017-04-18T06:53:41.607Z,62.53
2017-04-18T06:54:22.088Z,62.72
2017-04-18T06:55:02.521Z,62.72
2017-04-18T06:55:43.037Z,62.72
2017-04-18T06:56:23.486Z,63.1
2017-04-18T06:57:03.938Z,63.29
2017-04-18T06:57:44.405Z,63.48
2017-04-18T06:58:24.893Z,63.57
2017-04-18T06:59:05.377Z,63.2
2017-04-18T06:59:45.824Z,63.29
2017-04-18T07:00:26.309Z,63.1
2017-04-18T07:01:06.759Z,63.2
2017-04-18T07:01:47.208Z,63.1
2017-04-18T07:02:27.698Z,62.72
2017-04-18T07:03:08.912Z,63.48
2017-04-18T07:03:49.356Z,63.67
2017-04-18T07:04:29.838Z,63.48
2017-04-18T07:05:10.286Z,64.14
2017-04-18T07:07:28.085Z,63.67
2017-04-18T07:08:08.557Z,63.39
2017-04-18T07:08:49.080Z,63.39
2017-04-18T07:09:29.545Z,63.48
2017-04-18T07:10:10.019Z,63.1
2017-04-18T07:10:50.513Z,63.48
2017-04-18T07:11:30.986Z,63.57
2017-04-18T07:12:11.433Z,62.91
2017-04-18T07:12:51.906Z,63.39
2017-04-18T07:13:32.387Z,63.29
2017-04-18T07:14:12.871Z,63.1
2017-04-18T07:14:53.349Z,63.29
2017-04-18T07:15:33.871Z,63.57
2017-04-18T07:16:14.348Z,63.01
2017-04-18T07:18:32.194Z,63.86
2017-04-18T07:19:12.648Z,63.48
2017-04-18T07:19:53.121Z,63.2
2017-04-18T07:21:50.705Z,63.39
2017-04-18T07:22:31.163Z,63.2
2017-04-18T07:23:11.599Z,63.39
2017-04-18T07:25:24.284Z,63.57
2017-04-18T07:26:04.806Z,63.76
2017-04-18T07:26:45.314Z,64.14
2017-04-18T07:27:25.847Z,63.86
2017-04-18T07:28:06.397Z,64.05
2017-04-18T07:28:46.862Z,64.14
2017-04-18T07:29:27.318Z,64.9
2017-04-18T07:31:19.885Z,65.85
2017-04-18T07:32:00.361Z,65.31
2017-04-18T07:32:40.851Z,64.56
2017-04-18T07:33:21.352Z,63.98
2017-04-18T07:34:01.827Z,64.94
2017-04-18T07:34:42.400Z,64.08
2017-04-18T07:35:22.901Z,63.89
2017-04-18T07:36:03.372Z,64.56
2017-04-18T07:36:43.853Z,65.41
2017-04-18T07:37:25.074Z,65.31
2017-04-18T07:38:05.571Z,63.13
2017-04-18T07:40:23.401Z,61.61
2017-04-18T07:41:03.908Z,61.33
2017-04-18T07:41:44.438Z,61.23
2017-04-18T07:42:24.894Z,60.76
2017-04-18T07:43:05.379Z,61.33
2017-04-18T07:45:23.155Z,59.65
2017-04-18T07:46:03.643Z,59.65
2017-04-18T07:46:44.136Z,59.84
2017-04-18T07:47:24.618Z,59.33
2017-04-18T07:48:05.109Z,59.27
2017-04-18T07:48:45.573Z,60.31
2017-04-18T07:49:26.054Z,59.14
2017-04-18T07:50:06.515Z,59.46
2017-04-18T07:50:47.019Z,59.62
2017-04-18T07:51:27.499Z,59.27
2017-04-18T07:52:08.032Z,59.36
2017-04-18T07:52:48.480Z,58.98
2017-04-18T07:53:28.973Z,58.61
2017-04-18T07:54:09.407Z,58.8
2017-04-18T07:55:56.969Z,57.46
2017-04-18T07:56:37.333Z,58.22
2017-04-18T07:57:17.844Z,57.34
2017-04-18T07:57:58.835Z,59.52
2017-04-18T07:58:39.375Z,59.43
2017-04-18T07:59:19.850Z,58.58
2017-04-18T08:00:00.329Z,58.58
2017-04-18T08:00:40.856Z,59.14
2017-04-18T08:01:21.321Z,59.33
2017-04-18T08:02:01.796Z,58.58
2017-04-18T08:02:42.301Z,58
2017-04-18T08:03:22.764Z,58.29
2017-04-18T08:04:03.301Z,59.24
2017-04-18T08:04:43.740Z,59.14
2017-04-18T08:05:24.255Z,58.7
2017-04-18T08:06:04.676Z,58.22
2017-04-18T08:06:45.150Z,58.03
2017-04-18T08:08:32.673Z,57.18
2017-04-18T08:09:13.116Z,57.37
2017-04-18T08:09:53.566Z,57.18
2017-04-18T08:10:34.042Z,57.28
2017-04-18T08:11:14.479Z,58.22
2017-04-18T08:11:54.958Z,57.37
2017-04-18T08:12:35.480Z,56.99
2017-04-18T08:13:15.995Z,56.89
2017-04-18T08:13:56.508Z,56.23
2017-04-18T08:14:37.009Z,56.7
2017-04-18T08:15:17.527Z,56.51
2017-04-18T08:15:58.010Z,56.89
2017-04-18T08:16:38.552Z,55.85
2017-04-18T08:17:18.994Z,56.8
2017-04-18T08:17:59.470Z,56.7
2017-04-18T08:18:39.921Z,56.8
2017-04-18T08:19:20.395Z,55.76
2017-04-18T08:20:00.893Z,56.61
2017-04-18T08:20:41.440Z,55.47
2017-04-18T08:21:21.917Z,55.57
2017-04-18T08:22:03.178Z,55.37
2017-04-18T08:22:43.698Z,55.18
2017-04-18T08:23:24.167Z,55.09
2017-04-18T08:24:04.640Z,55.3
2017-04-18T08:24:45.098Z,55.18
2017-04-18T08:25:25.619Z,54.36
2017-04-18T08:26:06.117Z,54.9
2017-04-18T08:26:46.583Z,53.85
2017-04-18T08:27:27.122Z,54.14
2017-04-18T08:28:07.610Z,54.07
2017-04-18T08:28:48.114Z,54.07
2017-04-18T08:29:28.620Z,53.69
2017-04-18T08:30:09.092Z,53.5
2017-04-18T08:30:49.621Z,53.97
2017-04-18T08:31:30.108Z,53.5
2017-04-18T08:32:10.616Z,52.74
2017-04-18T08:32:51.163Z,52.36
2017-04-18T08:33:31.735Z,53.41
2017-04-18T08:34:12.216Z,52.93
2017-04-18T08:36:25.065Z,51.15
2017-04-18T08:37:05.429Z,50.77
2017-04-18T08:37:45.943Z,50.2
2017-04-18T08:38:26.509Z,50.32
2017-04-18T08:39:07.010Z,50.04
2017-04-18T08:39:48.197Z,50.32
2017-04-18T08:40:28.744Z,49.96
2017-04-18T08:41:09.293Z,48.54
2017-04-18T08:41:49.744Z,47.8
2017-04-18T08:43:42.326Z,47.49
2017-04-18T08:44:22.775Z,47.18
2017-04-18T08:45:03.256Z,48.32
2017-04-18T08:45:43.755Z,48.63
2017-04-18T08:46:24.281Z,48.82
2017-04-18T08:47:04.764Z,47.68
2017-04-18T08:47:45.346Z,47.58
2017-04-18T08:48:25.806Z,47.58
2017-04-18T08:49:06.268Z,47.3
2017-04-18T08:49:46.743Z,47.3
2017-04-18T08:50:27.318Z,47.68
2017-04-18T08:51:07.857Z,48.63
2017-04-18T08:51:48.297Z,47.39
2017-04-18T08:52:28.808Z,46.73
2017-04-18T08:54:26.456Z,47.68
2017-04-18T08:55:06.964Z,47.58
2017-04-18T08:55:47.455Z,47.78
2017-04-18T08:56:27.962Z,47.68
2017-04-18T08:57:08.476Z,47.58
2017-04-18T08:57:48.982Z,47.68
2017-04-18T08:58:29.466Z,47.11
2017-04-18T08:59:09.961Z,46.73
2017-04-18T08:59:50.477Z,46.35
2017-04-18T09:02:08.201Z,46.18
2017-04-18T09:02:48.679Z,45.8
2017-04-18T09:05:06.551Z,45.8
2017-04-18T09:05:46.986Z,45.99
2017-04-18T09:06:27.530Z,46.28
2017-04-18T09:07:08.002Z,46.18
2017-04-18T09:07:48.587Z,45.99
2017-04-18T09:10:01.512Z,45.97
2017-04-18T09:10:41.913Z,47.02
2017-04-18T09:11:22.380Z,47.2
2017-04-18T09:12:02.863Z,47.39
2017-04-18T09:12:43.340Z,46.35
2017-04-18T09:13:23.831Z,46.54
2017-04-18T09:14:04.407Z,47.2
2017-04-18T09:14:45.030Z,46.92
2017-04-18T09:15:25.759Z,47.18
2017-04-18T09:16:06.615Z,48.13
2017-04-18T09:16:47.363Z,47.78
2017-04-18T09:17:28.054Z,48.35
2017-04-18T09:18:08.844Z,47.78
2017-04-18T09:18:49.601Z,48.54
2017-04-18T09:19:30.312Z,48.63
2017-04-18T09:20:11.205Z,48.16
2017-04-18T09:20:52.274Z,49.3
2017-04-18T09:21:33.236Z,48.92
2017-04-18T09:22:14.369Z,48.75
2017-04-18T09:22:55.228Z,47.71
2017-04-18T09:23:36.042Z,47.13
2017-04-18T09:24:16.989Z,47.06
2017-04-18T09:24:57.826Z,46.78
2017-04-18T09:25:38.677Z,46.11
2017-04-18T09:26:19.262Z,46.01
2017-04-18T09:26:59.914Z,44.96
2017-04-18T09:27:40.591Z,45.25
2017-04-18T09:28:21.773Z,44.96
2017-04-18T09:29:02.435Z,44.59
2017-04-18T09:29:43.292Z,44.7
2017-04-18T09:30:23.925Z,43.84
2017-04-18T09:31:04.631Z,42.8
2017-04-18T09:31:45.410Z,42.89
2017-04-18T09:32:26.031Z,42.89
2017-04-18T09:33:06.747Z,42.72
2017-04-18T09:33:47.497Z,42.05
2017-04-18T09:34:28.504Z,41.86
2017-04-18T09:35:09.169Z,42.03
2017-04-18T09:35:49.810Z,43.08
2017-04-18T09:36:30.517Z,44.2